sensor_id;sensor_type;location;lat;lon;timestamp;pressure;altitude;pressure_sealevel;temperature;humidity
36254;BME280;22291;52.250;21.228;2023-07-13T00:00:50;99843.58;;;19.45;80.89
36254;BME280;22291;52.250;21.228;2023-07-13T00:03:18;99848.06;;;19.43;81.09
36254;BME280;22291;52.250;21.228;2023-07-13T00:05:44;99848.23;;;19.40;81.18
36254;BME280;22291;52.250;21.228;2023-07-13T00:08:10;99847.83;;;19.38;81.59
36254;BME280;22291;52.250;21.228;2023-07-13T00:10:41;99846.64;;;19.36;81.49
36254;BME280;22291;52.250;21.228;2023-07-13T00:13:08;99848.77;;;19.33;81.80
36254;BME280;22291;52.250;21.228;2023-07-13T00:15:35;99846.59;;;19.32;81.62
36254;BME280;22291;52.250;21.228;2023-07-13T00:18:02;99842.07;;;19.30;81.79
36254;BME280;22291;52.250;21.228;2023-07-13T00:20:29;99839.14;;;19.29;81.85
36254;BME280;22291;52.250;21.228;2023-07-13T00:22:55;99835.19;;;19.27;81.97
36254;BME280;22291;52.250;21.228;2023-07-13T00:25:22;99839.89;;;19.26;82.18
36254;BME280;22291;52.250;21.228;2023-07-13T00:27:55;99836.94;;;19.25;82.14
36254;BME280;22291;52.250;21.228;2023-07-13T00:30:21;99837.31;;;19.23;82.18
36254;BME280;22291;52.250;21.228;2023-07-13T00:32:48;99832.20;;;19.22;82.04
36254;BME280;22291;52.250;21.228;2023-07-13T00:35:14;99829.47;;;19.22;82.27
36254;BME280;22291;52.250;21.228;2023-07-13T00:37:42;99831.80;;;19.20;82.13
36254;BME280;22291;52.250;21.228;2023-07-13T00:40:12;99828.66;;;19.18;82.22
36254;BME280;22291;52.250;21.228;2023-07-13T00:42:40;99827.88;;;19.17;82.18
36254;BME280;22291;52.250;21.228;2023-07-13T00:47:43;99827.26;;;19.14;82.43
36254;BME280;22291;52.250;21.228;2023-07-13T00:50:12;99825.48;;;19.12;82.44
36254;BME280;22291;52.250;21.228;2023-07-13T00:52:44;99826.64;;;19.11;82.45
36254;BME280;22291;52.250;21.228;2023-07-13T00:55:12;99819.39;;;19.09;82.53
36254;BME280;22291;52.250;21.228;2023-07-13T00:57:41;99826.23;;;19.09;82.59
36254;BME280;22291;52.250;21.228;2023-07-13T01:00:10;99827.98;;;19.08;82.80
36254;BME280;22291;52.250;21.228;2023-07-13T01:02:39;99826.39;;;19.07;82.68
36254;BME280;22291;52.250;21.228;2023-07-13T01:05:13;99829.73;;;19.06;82.93
36254;BME280;22291;52.250;21.228;2023-07-13T01:07:43;99828.95;;;19.06;82.86
36254;BME280;22291;52.250;21.228;2023-07-13T01:10:12;99835.80;;;19.06;82.86
36254;BME280;22291;52.250;21.228;2023-07-13T01:12:39;99838.14;;;19.03;82.94
36254;BME280;22291;52.250;21.228;2023-07-13T01:18:01;99834.97;;;19.01;82.92
36254;BME280;22291;52.250;21.228;2023-07-13T01:20:29;99838.30;;;19.01;82.95
36254;BME280;22291;52.250;21.228;2023-07-13T01:22:56;99838.08;;;19.00;83.08
36254;BME280;22291;52.250;21.228;2023-07-13T01:25:22;99838.27;;;18.97;83.02
36254;BME280;22291;52.250;21.228;2023-07-13T01:27:48;99840.22;;;18.97;83.03
36254;BME280;22291;52.250;21.228;2023-07-13T01:30:15;99832.94;;;18.95;83.24
36254;BME280;22291;52.250;21.228;2023-07-13T01:32:41;99835.27;;;18.93;83.19
36254;BME280;22291;52.250;21.228;2023-07-13T01:35:08;99841.31;;;18.89;83.00
36254;BME280;22291;52.250;21.228;2023-07-13T01:37:35;99839.54;;;18.87;83.14
36254;BME280;22291;52.250;21.228;2023-07-13T01:40:04;99840.91;;;18.87;83.34
36254;BME280;22291;52.250;21.228;2023-07-13T01:42:31;99850.88;;;18.85;83.20
36254;BME280;22291;52.250;21.228;2023-07-13T01:44:59;99849.66;;;18.82;83.02
36254;BME280;22291;52.250;21.228;2023-07-13T01:47:25;99850.19;;;18.78;83.04
36254;BME280;22291;52.250;21.228;2023-07-13T01:49:53;99864.63;;;18.75;83.09
36254;BME280;22291;52.250;21.228;2023-07-13T01:52:19;99871.59;;;18.69;82.85
36254;BME280;22291;52.250;21.228;2023-07-13T01:54:45;99865.88;;;18.64;83.02
36254;BME280;22291;52.250;21.228;2023-07-13T01:57:14;99864.26;;;18.60;83.43
36254;BME280;22291;52.250;21.228;2023-07-13T01:59:40;99863.63;;;18.57;83.77
36254;BME280;22291;52.250;21.228;2023-07-13T02:02:07;99868.52;;;18.57;84.00
36254;BME280;22291;52.250;21.228;2023-07-13T02:04:33;99863.63;;;18.57;84.09
36254;BME280;22291;52.250;21.228;2023-07-13T02:07:00;99863.41;;;18.56;84.26
36254;BME280;22291;52.250;21.228;2023-07-13T02:09:26;99865.59;;;18.56;84.39
36254;BME280;22291;52.250;21.228;2023-07-13T02:11:52;99860.89;;;18.57;84.54
36254;BME280;22291;52.250;21.228;2023-07-13T02:14:18;99860.73;;;18.59;84.49
36254;BME280;22291;52.250;21.228;2023-07-13T02:16:45;99860.15;;;18.60;84.56
36254;BME280;22291;52.250;21.228;2023-07-13T02:19:11;99865.03;;;18.60;84.54
36254;BME280;22291;52.250;21.228;2023-07-13T02:21:37;99869.14;;;18.60;84.46
36254;BME280;22291;52.250;21.228;2023-07-13T02:24:05;99875.99;;;18.60;84.48
36254;BME280;22291;52.250;21.228;2023-07-13T02:26:31;99873.25;;;18.60;84.49
36254;BME280;22291;52.250;21.228;2023-07-13T02:28:58;99880.10;;;18.60;84.47
36254;BME280;22291;52.250;21.228;2023-07-13T02:31:24;99885.95;;;18.59;84.43
36254;BME280;22291;52.250;21.228;2023-07-13T02:33:51;99885.09;;;18.51;84.26
36254;BME280;22291;52.250;21.228;2023-07-13T02:36:17;99887.78;;;18.47;84.63
36254;BME280;22291;52.250;21.228;2023-07-13T02:38:44;99889.67;;;18.43;84.57
36254;BME280;22291;52.250;21.228;2023-07-13T02:41:10;99883.78;;;18.41;84.96
36254;BME280;22291;52.250;21.228;2023-07-13T02:43:39;99877.09;;;18.39;84.93
36254;BME280;22291;52.250;21.228;2023-07-13T02:46:06;99876.16;;;18.41;84.98
36254;BME280;22291;52.250;21.228;2023-07-13T02:48:36;99883.78;;;18.41;85.14
36254;BME280;22291;52.250;21.228;2023-07-13T02:51:04;99881.64;;;18.41;85.36
36254;BME280;22291;52.250;21.228;2023-07-13T02:53:31;99883.78;;;18.41;85.22
36254;BME280;22291;52.250;21.228;2023-07-13T02:55:58;99874.98;;;18.42;85.46
36254;BME280;22291;52.250;21.228;2023-07-13T02:58:25;99871.69;;;18.42;85.44
36254;BME280;22291;52.250;21.228;2023-07-13T03:00:51;99869.50;;;18.42;85.46
36254;BME280;22291;52.250;21.228;2023-07-13T03:03:18;99871.31;;;18.44;85.54
36254;BME280;22291;52.250;21.228;2023-07-13T03:05:45;99871.31;;;18.44;85.49
36254;BME280;22291;52.250;21.228;2023-07-13T03:08:13;99870.14;;;18.45;85.58
36254;BME280;22291;52.250;21.228;2023-07-13T03:10:39;99873.66;;;18.45;85.57
36254;BME280;22291;52.250;21.228;2023-07-13T03:13:06;99872.69;;;18.44;85.28
36254;BME280;22291;52.250;21.228;2023-07-13T03:15:32;99871.47;;;18.41;85.37
36254;BME280;22291;52.250;21.228;2023-07-13T03:17:59;99877.72;;;18.42;85.24
36254;BME280;22291;52.250;21.228;2023-07-13T03:20:25;99874.35;;;18.39;85.09
36254;BME280;22291;52.250;21.228;2023-07-13T03:22:52;99878.46;;;18.39;85.19
36254;BME280;22291;52.250;21.228;2023-07-13T03:25:18;99874.58;;;18.40;85.32
36254;BME280;22291;52.250;21.228;2023-07-13T03:27:44;99871.61;;;18.39;85.22
36254;BME280;22291;52.250;21.228;2023-07-13T03:30:12;99875.72;;;18.39;85.25
36254;BME280;22291;52.250;21.228;2023-07-13T03:32:39;99874.94;;;18.38;85.43
36254;BME280;22291;52.250;21.228;2023-07-13T03:35:06;99870.64;;;18.37;85.46
36254;BME280;22291;52.250;21.228;2023-07-13T03:37:34;99871.02;;;18.36;85.34
36254;BME280;22291;52.250;21.228;2023-07-13T03:40:00;99872.94;;;18.35;85.58
36254;BME280;22291;52.250;21.228;2023-07-13T03:42:26;99874.90;;;18.35;85.66
36254;BME280;22291;52.250;21.228;2023-07-13T03:44:52;99865.54;;;18.36;85.76
36254;BME280;22291;52.250;21.228;2023-07-13T03:47:19;99856.55;;;18.39;85.92
36254;BME280;22291;52.250;21.228;2023-07-13T03:49:45;99859.69;;;18.37;85.79
36254;BME280;22291;52.250;21.228;2023-07-13T03:52:12;99862.63;;;18.38;85.89
36254;BME280;22291;52.250;21.228;2023-07-13T03:54:38;99858.52;;;18.38;86.17
36254;BME280;22291;52.250;21.228;2023-07-13T03:57:06;99853.08;;;18.42;86.36
36254;BME280;22291;52.250;21.228;2023-07-13T03:59:33;99853.34;;;18.46;86.52
36254;BME280;22291;52.250;21.228;2023-07-13T04:02:01;99847.27;;;18.47;86.24
36254;BME280;22291;52.250;21.228;2023-07-13T04:04:30;99849.27;;;18.50;86.30
36254;BME280;22291;52.250;21.228;2023-07-13T04:06:57;99852.64;;;18.53;86.24
36254;BME280;22291;52.250;21.228;2023-07-13T04:09:24;99850.31;;;18.55;86.24
36254;BME280;22291;52.250;21.228;2023-07-13T04:11:51;99862.30;;;18.60;86.35
36254;BME280;22291;52.250;21.228;2023-07-13T04:14:18;99856.11;;;18.67;87.08
36254;BME280;22291;52.250;21.228;2023-07-13T04:16:45;99862.48;;;18.75;87.67
36254;BME280;22291;52.250;21.228;2023-07-13T04:19:11;99864.94;;;18.83;87.90
36254;BME280;22291;52.250;21.228;2023-07-13T04:21:38;99874.01;;;18.91;88.06
36254;BME280;22291;52.250;21.228;2023-07-13T04:24:06;99876.26;;;18.99;88.10
36254;BME280;22291;52.250;21.228;2023-07-13T04:26:33;99883.02;;;19.09;88.08
36254;BME280;22291;52.250;21.228;2023-07-13T04:29:02;99887.81;;;19.19;88.76
36254;BME280;22291;52.250;21.228;2023-07-13T04:31:30;99892.61;;;19.29;89.07
36254;BME280;22291;52.250;21.228;2023-07-13T04:33:58;99890.55;;;19.39;88.62
36254;BME280;22291;52.250;21.228;2023-07-13T04:36:25;99903.97;;;19.52;88.70
36254;BME280;22291;52.250;21.228;2023-07-13T04:38:55;99900.17;;;19.67;89.66
36254;BME280;22291;52.250;21.228;2023-07-13T04:41:21;99904.64;;;19.86;90.22
36254;BME280;22291;52.250;21.228;2023-07-13T04:43:48;99907.91;;;20.03;90.18
36254;BME280;22291;52.250;21.228;2023-07-13T04:46:16;99913.09;;;20.19;89.35
36254;BME280;22291;52.250;21.228;2023-07-13T04:48:44;99911.59;;;20.32;89.28
36254;BME280;22291;52.250;21.228;2023-07-13T04:51:11;99920.11;;;20.47;89.42
36254;BME280;22291;52.250;21.228;2023-07-13T04:53:37;99922.37;;;20.62;89.02
36254;BME280;22291;52.250;21.228;2023-07-13T04:56:04;99921.03;;;20.77;89.01
36254;BME280;22291;52.250;21.228;2023-07-13T04:58:31;99922.05;;;20.89;88.51
36254;BME280;22291;52.250;21.228;2023-07-13T05:01:03;99927.00;;;21.00;87.92
36254;BME280;22291;52.250;21.228;2023-07-13T05:03:31;99929.77;;;21.07;87.08
36254;BME280;22291;52.250;21.228;2023-07-13T05:06:00;99926.64;;;21.16;86.73
36254;BME280;22291;52.250;21.228;2023-07-13T05:10:54;99930.20;;;21.35;86.00
36254;BME280;22291;52.250;21.228;2023-07-13T05:13:22;99926.50;;;21.44;85.93
36254;BME280;22291;52.250;21.228;2023-07-13T05:15:57;99924.55;;;21.52;85.75
36254;BME280;22291;52.250;21.228;2023-07-13T05:18:25;99925.53;;;21.60;85.55
36254;BME280;22291;52.250;21.228;2023-07-13T05:21:01;99929.87;;;21.69;85.14
36254;BME280;22291;52.250;21.228;2023-07-13T05:23:30;99933.03;;;21.74;84.83
36254;BME280;22291;52.250;21.228;2023-07-13T05:25:58;99929.67;;;21.82;84.52
36254;BME280;22291;52.250;21.228;2023-07-13T05:28:27;99934.98;;;21.88;84.15
36254;BME280;22291;52.250;21.228;2023-07-13T05:30:57;99938.72;;;21.93;83.87
36254;BME280;22291;52.250;21.228;2023-07-13T05:33:24;99944.00;;;21.99;83.67
36254;BME280;22291;52.250;21.228;2023-07-13T05:35:51;99945.78;;;22.05;83.25
36254;BME280;22291;52.250;21.228;2023-07-13T05:38:17;99956.19;;;22.09;83.06
36254;BME280;22291;52.250;21.228;2023-07-13T05:40:45;99961.30;;;22.14;82.91
36254;BME280;22291;52.250;21.228;2023-07-13T05:43:13;99963.05;;;22.20;82.97
36254;BME280;22291;52.250;21.228;2023-07-13T05:45:40;99969.38;;;22.28;82.62
36254;BME280;22291;52.250;21.228;2023-07-13T05:48:07;99966.60;;;22.35;82.20
36254;BME280;22291;52.250;21.228;2023-07-13T05:50:33;99967.18;;;22.42;82.06
36254;BME280;22291;52.250;21.228;2023-07-13T05:52:59;99970.51;;;22.48;82.01
36254;BME280;22291;52.250;21.228;2023-07-13T05:55:25;99978.18;;;22.56;82.20
36254;BME280;22291;52.250;21.228;2023-07-13T05:57:52;99976.16;;;22.67;82.21
36254;BME280;22291;52.250;21.228;2023-07-13T06:00:19;99972.95;;;22.80;81.89
36254;BME280;22291;52.250;21.228;2023-07-13T06:02:45;99967.61;;;22.88;81.27
36254;BME280;22291;52.250;21.228;2023-07-13T06:05:12;99968.73;;;23.01;80.86
36254;BME280;22291;52.250;21.228;2023-07-13T06:07:38;99973.81;;;23.13;80.62
36254;BME280;22291;52.250;21.228;2023-07-13T06:10:06;99972.16;;;23.27;80.00
36254;BME280;22291;52.250;21.228;2023-07-13T06:12:32;99956.11;;;23.41;79.62
36254;BME280;22291;52.250;21.228;2023-07-13T06:14:58;99947.16;;;23.52;79.05
36254;BME280;22291;52.250;21.228;2023-07-13T06:17:25;99943.13;;;23.64;78.33
36254;BME280;22291;52.250;21.228;2023-07-13T06:19:51;99946.61;;;23.72;77.98
36254;BME280;22291;52.250;21.228;2023-07-13T06:22:17;99941.81;;;23.83;78.19
36254;BME280;22291;52.250;21.228;2023-07-13T06:24:43;99947.36;;;24.02;77.64
36254;BME280;22291;52.250;21.228;2023-07-13T06:27:09;99945.33;;;24.10;76.10
36254;BME280;22291;52.250;21.228;2023-07-13T06:29:35;99946.84;;;24.14;74.95
36254;BME280;22291;52.250;21.228;2023-07-13T06:32:02;99946.67;;;24.13;73.78
36254;BME280;22291;52.250;21.228;2023-07-13T06:34:29;99946.67;;;24.13;73.27
36254;BME280;22291;52.250;21.228;2023-07-13T06:36:57;99945.89;;;24.13;72.41
36254;BME280;22291;52.250;21.228;2023-07-13T06:39:23;99942.33;;;24.12;71.19
36254;BME280;22291;52.250;21.228;2023-07-13T06:41:49;99942.48;;;24.17;71.21
36254;BME280;22291;52.250;21.228;2023-07-13T06:44:15;99938.45;;;24.25;71.42
36254;BME280;22291;52.250;21.228;2023-07-13T06:46:41;99937.77;;;24.33;71.36
36254;BME280;22291;52.250;21.228;2023-07-13T06:49:09;99932.36;;;24.41;69.88
36254;BME280;22291;52.250;21.228;2023-07-13T06:51:37;99930.88;;;24.48;69.16
36254;BME280;22291;52.250;21.228;2023-07-13T06:54:05;99930.47;;;24.50;69.08
36254;BME280;22291;52.250;21.228;2023-07-13T06:56:31;99943.00;;;24.61;68.93
36254;BME280;22291;52.250;21.228;2023-07-13T06:58:59;99941.05;;;24.77;68.33
36254;BME280;22291;52.250;21.228;2023-07-13T07:01:26;99939.61;;;24.96;66.63
36254;BME280;22291;52.250;21.228;2023-07-13T07:03:52;99942.72;;;25.14;66.34
36254;BME280;22291;52.250;21.228;2023-07-13T07:06:20;99942.50;;;25.32;65.58
36254;BME280;22291;52.250;21.228;2023-07-13T07:08:52;99945.53;;;25.53;63.75
36254;BME280;22291;52.250;21.228;2023-07-13T07:11:25;99935.78;;;25.68;62.10
36254;BME280;22291;52.250;21.228;2023-07-13T07:13:50;99939.27;;;25.84;60.56
36254;BME280;22291;52.250;21.228;2023-07-13T07:16:19;99937.67;;;25.99;60.05
36254;BME280;22291;52.250;21.228;2023-07-13T07:18:47;99935.05;;;26.12;59.26
36254;BME280;22291;52.250;21.228;2023-07-13T07:21:14;99929.38;;;26.31;59.12
36254;BME280;22291;52.250;21.228;2023-07-13T07:23:43;99931.05;;;26.56;58.73
36254;BME280;22291;52.250;21.228;2023-07-13T07:26:10;99931.03;;;26.76;58.10
36254;BME280;22291;52.250;21.228;2023-07-13T07:28:37;99928.50;;;26.94;57.46
36254;BME280;22291;52.250;21.228;2023-07-13T07:31:04;99936.84;;;27.10;57.15
36254;BME280;22291;52.250;21.228;2023-07-13T07:33:32;99943.56;;;27.29;56.91
36254;BME280;22291;52.250;21.228;2023-07-13T07:36:03;99946.02;;;27.44;55.22
36254;BME280;22291;52.250;21.228;2023-07-13T07:38:31;99943.06;;;27.51;53.53
36254;BME280;22291;52.250;21.228;2023-07-13T07:40:57;99949.67;;;27.57;53.02
36254;BME280;22291;52.250;21.228;2023-07-13T07:43:23;99950.88;;;27.64;52.74
36254;BME280;22291;52.250;21.228;2023-07-13T07:45:49;99951.47;;;27.72;52.35
36254;BME280;22291;52.250;21.228;2023-07-13T07:48:16;99957.55;;;27.91;52.18
36254;BME280;22291;52.250;21.228;2023-07-13T07:50:44;99950.23;;;28.14;52.28
36254;BME280;22291;52.250;21.228;2023-07-13T07:53:12;99945.15;;;28.34;52.65
36254;BME280;22291;52.250;21.228;2023-07-13T07:55:38;99947.23;;;28.59;50.76
36254;BME280;22291;52.250;21.228;2023-07-13T07:58:06;99953.05;;;28.64;50.10
36254;BME280;22291;52.250;21.228;2023-07-13T08:00:33;99949.80;;;28.74;49.16
36254;BME280;22291;52.250;21.228;2023-07-13T08:03:03;99951.92;;;28.83;49.55
36254;BME280;22291;52.250;21.228;2023-07-13T08:05:29;99959.91;;;29.02;49.37
36254;BME280;22291;52.250;21.228;2023-07-13T08:07:58;99960.12;;;29.08;49.11
36254;BME280;22291;52.250;21.228;2023-07-13T08:10:24;99958.11;;;29.08;48.39
36254;BME280;22291;52.250;21.228;2023-07-13T08:12:50;99951.54;;;29.15;48.87
36254;BME280;22291;52.250;21.228;2023-07-13T08:15:18;99955.70;;;29.36;48.94
36254;BME280;22291;52.250;21.228;2023-07-13T08:17:48;99961.81;;;29.43;47.48
36254;BME280;22291;52.250;21.228;2023-07-13T08:20:17;99961.31;;;29.40;45.35
36254;BME280;22291;52.250;21.228;2023-07-13T08:22:43;99956.58;;;29.20;45.63
36254;BME280;22291;52.250;21.228;2023-07-13T08:25:14;99957.59;;;29.26;46.34
36254;BME280;22291;52.250;21.228;2023-07-13T08:27:40;99970.05;;;29.47;46.68
36254;BME280;22291;52.250;21.228;2023-07-13T08:30:10;99970.50;;;29.46;45.53
36254;BME280;22291;52.250;21.228;2023-07-13T08:32:38;99959.27;;;29.36;45.93
36254;BME280;22291;52.250;21.228;2023-07-13T08:35:07;99960.66;;;29.36;46.25
36254;BME280;22291;52.250;21.228;2023-07-13T08:37:33;99954.43;;;29.62;46.77
36254;BME280;22291;52.250;21.228;2023-07-13T08:40:07;99958.19;;;29.94;46.86
36254;BME280;22291;52.250;21.228;2023-07-13T08:42:57;99950.75;;;30.13;46.10
36254;BME280;22291;52.250;21.228;2023-07-13T08:45:38;99946.35;;;30.25;45.13
36254;BME280;22291;52.250;21.228;2023-07-13T08:48:18;99942.06;;;30.46;45.67
36254;BME280;22291;52.250;21.228;2023-07-13T08:50:49;99948.01;;;30.84;45.27
36254;BME280;22291;52.250;21.228;2023-07-13T08:53:19;99941.80;;;31.12;44.70
36254;BME280;22291;52.250;21.228;2023-07-13T08:55:46;99951.52;;;31.38;44.44
36254;BME280;22291;52.250;21.228;2023-07-13T08:58:14;99951.46;;;31.70;44.39
36254;BME280;22291;52.250;21.228;2023-07-13T09:06:56;99963.17;;;32.37;41.82
36254;BME280;22291;52.250;21.228;2023-07-13T09:15:04;99965.74;;;31.72;41.06
36254;BME280;22291;52.250;21.228;2023-07-13T09:17:40;99965.66;;;31.44;40.92
36254;BME280;22291;52.250;21.228;2023-07-13T09:20:22;99960.30;;;31.18;40.50
36254;BME280;22291;52.250;21.228;2023-07-13T09:22:50;99957.02;;;30.84;41.03
36254;BME280;22291;52.250;21.228;2023-07-13T09:25:32;99957.53;;;30.69;41.97
36254;BME280;22291;52.250;21.228;2023-07-13T09:28:05;99953.70;;;30.76;42.15
36254;BME280;22291;52.250;21.228;2023-07-13T09:33:24;99941.63;;;31.10;42.52
36254;BME280;22291;52.250;21.228;2023-07-13T09:35:52;99947.14;;;31.33;41.38
36254;BME280;22291;52.250;21.228;2023-07-13T09:38:19;99948.88;;;31.35;41.24
36254;BME280;22291;52.250;21.228;2023-07-13T09:41:19;99948.52;;;31.23;40.93
36254;BME280;22291;52.250;21.228;2023-07-13T09:44:09;99954.25;;;31.24;41.07
36254;BME280;22291;52.250;21.228;2023-07-13T09:46:39;99973.95;;;31.16;40.33
36254;BME280;22291;52.250;21.228;2023-07-13T09:49:12;99990.64;;;30.80;39.48
36254;BME280;22291;52.250;21.228;2023-07-13T09:51:41;99989.18;;;30.31;38.72
36254;BME280;22291;52.250;21.228;2023-07-13T09:54:21;99976.88;;;29.89;38.76
36254;BME280;22291;52.250;21.228;2023-07-13T09:56:58;99972.69;;;29.46;38.90
36254;BME280;22291;52.250;21.228;2023-07-13T09:59:32;99967.12;;;28.99;39.24
36254;BME280;22291;52.250;21.228;2023-07-13T10:02:01;99964.95;;;28.65;39.87
36254;BME280;22291;52.250;21.228;2023-07-13T10:04:31;99958.25;;;28.33;40.30
36254;BME280;22291;52.250;21.228;2023-07-13T10:07:12;99957.89;;;28.10;40.82
36254;BME280;22291;52.250;21.228;2023-07-13T10:09:41;99952.54;;;27.94;41.09
36254;BME280;22291;52.250;21.228;2023-07-13T10:12:16;99956.59;;;27.82;41.55
36254;BME280;22291;52.250;21.228;2023-07-13T10:14:45;99959.28;;;27.85;41.76
36254;BME280;22291;52.250;21.228;2023-07-13T10:17:14;99955.91;;;27.78;41.78
36254;BME280;22291;52.250;21.228;2023-07-13T10:19:43;99946.97;;;27.62;42.09
36254;BME280;22291;52.250;21.228;2023-07-13T10:22:31;99945.50;;;27.41;42.22
36254;BME280;22291;52.250;21.228;2023-07-13T10:24:56;99936.85;;;27.18;42.54
36254;BME280;22291;52.250;21.228;2023-07-13T10:27:29;99932.73;;;26.98;42.76
36254;BME280;22291;52.250;21.228;2023-07-13T10:30:12;99931.91;;;26.81;43.17
36254;BME280;22291;52.250;21.228;2023-07-13T10:32:50;99929.27;;;26.66;43.50
36254;BME280;22291;52.250;21.228;2023-07-13T10:35:20;99928.16;;;26.52;43.97
36254;BME280;22291;52.250;21.228;2023-07-13T10:37:55;99913.72;;;26.40;44.25
36254;BME280;22291;52.250;21.228;2023-07-13T10:40:29;99902.00;;;26.33;44.76
36254;BME280;22291;52.250;21.228;2023-07-13T10:42:59;99906.58;;;26.31;45.56
36254;BME280;22291;52.250;21.228;2023-07-13T10:45:30;99900.69;;;26.29;45.58
36254;BME280;22291;52.250;21.228;2023-07-13T10:48:01;99900.69;;;26.29;45.58
36254;BME280;22291;52.250;21.228;2023-07-13T10:50:29;99902.62;;;26.20;45.55
36254;BME280;22291;52.250;21.228;2023-07-13T10:53:21;99901.98;;;26.13;45.93
36254;BME280;22291;52.250;21.228;2023-07-13T10:58:23;99924.09;;;25.93;46.18
36254;BME280;22291;52.250;21.228;2023-07-13T11:04:01;99911.83;;;25.70;46.33
36254;BME280;22291;52.250;21.228;2023-07-13T11:06:41;99910.25;;;25.57;46.50
36254;BME280;22291;52.250;21.228;2023-07-13T11:09:31;99914.64;;;25.43;46.46
36254;BME280;22291;52.250;21.228;2023-07-13T11:18:04;99946.88;;;24.98;47.45
36254;BME280;22291;52.250;21.228;2023-07-13T11:23:16;99972.87;;;24.74;49.90
36254;BME280;22291;52.250;21.228;2023-07-13T11:25:37;99988.66;;;24.58;51.02
36254;BME280;22291;52.250;21.228;2023-07-13T11:30:43;100014.52;;;24.14;52.45
36254;BME280;22291;52.250;21.228;2023-07-13T11:33:28;100021.98;;;23.98;53.35
36254;BME280;22291;52.250;21.228;2023-07-13T11:36:17;100032.74;;;23.78;53.82
36254;BME280;22291;52.250;21.228;2023-07-13T11:39:01;100043.34;;;23.57;54.92
36254;BME280;22291;52.250;21.228;2023-07-13T11:41:50;100047.59;;;23.36;56.30
36254;BME280;22291;52.250;21.228;2023-07-13T11:44:24;100046.55;;;23.08;57.58
36254;BME280;22291;52.250;21.228;2023-07-13T11:47:10;100041.30;;;22.73;58.37
36254;BME280;22291;52.250;21.228;2023-07-13T11:49:44;100037.84;;;22.51;58.67
36254;BME280;22291;52.250;21.228;2023-07-13T11:52:18;100037.64;;;22.32;59.71
36254;BME280;22291;52.250;21.228;2023-07-13T11:54:50;100040.39;;;22.14;60.72
36254;BME280;22291;52.250;21.228;2023-07-13T11:59:59;100042.75;;;21.87;62.09
36254;BME280;22291;52.250;21.228;2023-07-13T12:02:36;100048.04;;;21.78;63.02
36254;BME280;22291;52.250;21.228;2023-07-13T12:05:05;100052.16;;;21.71;63.66
36254;BME280;22291;52.250;21.228;2023-07-13T12:07:35;100059.99;;;21.62;63.84
36254;BME280;22291;52.250;21.228;2023-07-13T12:11:24;100078.86;;;21.56;65.83
36254;BME280;22291;52.250;21.228;2023-07-13T12:13:51;100077.42;;;21.42;65.59
36254;BME280;22291;52.250;21.228;2023-07-13T12:16:29;100068.35;;;21.38;66.56
36254;BME280;22291;52.250;21.228;2023-07-13T12:19:00;100061.24;;;21.30;66.51
36254;BME280;22291;52.250;21.228;2023-07-13T12:21:33;100054.14;;;21.21;67.05
36254;BME280;22291;52.250;21.228;2023-07-13T12:27:02;100047.23;;;21.11;68.32
36254;BME280;22291;52.250;21.228;2023-07-13T12:29:32;100044.63;;;21.01;69.18
36254;BME280;22291;52.250;21.228;2023-07-13T12:32:00;100057.95;;;20.92;69.51
36254;BME280;22291;52.250;21.228;2023-07-13T12:34:27;100055.78;;;20.87;70.24
36254;BME280;22291;52.250;21.228;2023-07-13T12:36:59;100049.30;;;20.89;70.79
36254;BME280;22291;52.250;21.228;2023-07-13T12:42:23;100045.95;;;20.90;71.78
36254;BME280;22291;52.250;21.228;2023-07-13T12:45:01;100039.28;;;20.87;71.38
36254;BME280;22291;52.250;21.228;2023-07-13T12:47:38;100033.95;;;20.85;71.90
36254;BME280;22291;52.250;21.228;2023-07-13T12:50:04;100021.17;;;20.79;71.84
36254;BME280;22291;52.250;21.228;2023-07-13T12:52:34;100018.03;;;20.77;71.95
36254;BME280;22291;52.250;21.228;2023-07-13T12:55:10;100018.98;;;20.75;72.05
36254;BME280;22291;52.250;21.228;2023-07-13T13:00:28;100018.80;;;20.74;72.79
36254;BME280;22291;52.250;21.228;2023-07-13T13:03:02;100018.20;;;20.75;73.36
36254;BME280;22291;52.250;21.228;2023-07-13T13:05:30;100017.98;;;20.74;73.77
36254;BME280;22291;52.250;21.228;2023-07-13T13:07:58;100024.86;;;20.74;73.97
36254;BME280;22291;52.250;21.228;2023-07-13T13:10:24;100025.28;;;20.76;74.25
36254;BME280;22291;52.250;21.228;2023-07-13T13:12:52;100024.09;;;20.77;74.70
36254;BME280;22291;52.250;21.228;2023-07-13T13:15:18;100024.69;;;20.76;74.85
36254;BME280;22291;52.250;21.228;2023-07-13T13:17:44;100029.42;;;20.79;75.14
36254;BME280;22291;52.250;21.228;2023-07-13T13:20:14;100028.05;;;20.79;75.23
36254;BME280;22291;52.250;21.228;2023-07-13T13:22:42;100026.67;;;20.79;75.12
36254;BME280;22291;52.250;21.228;2023-07-13T13:25:12;100028.61;;;20.79;76.49
36254;BME280;22291;52.250;21.228;2023-07-13T13:27:41;100043.77;;;20.82;76.48
36254;BME280;22291;52.250;21.228;2023-07-13T13:30:14;100042.60;;;20.87;76.35
36254;BME280;22291;52.250;21.228;2023-07-13T13:32:45;100049.69;;;20.88;75.85
36254;BME280;22291;52.250;21.228;2023-07-13T13:35:15;100044.95;;;20.85;75.90
36254;BME280;22291;52.250;21.228;2023-07-13T13:37:46;100050.06;;;20.86;76.28
36254;BME280;22291;52.250;21.228;2023-07-13T13:40:19;100057.53;;;20.86;76.16
36254;BME280;22291;52.250;21.228;2023-07-13T13:42:49;100067.53;;;20.84;76.67
36254;BME280;22291;52.250;21.228;2023-07-13T13:45:17;100068.68;;;20.80;76.62
36254;BME280;22291;52.250;21.228;2023-07-13T13:47:44;100064.70;;;20.74;76.84
36254;BME280;22291;52.250;21.228;2023-07-13T13:50:12;100063.91;;;20.69;77.27